sensor_id;sensor_type;location;lat;lon;timestamp;pressure;altitude;pressure_sealevel;temperature;humidity
77450;BME280;66536;53.150;18.172;2023-10-13T00:01:08;101303.27;;;5.57;89.38
77450;BME280;66536;53.150;18.172;2023-10-13T00:03:40;101305.61;;;5.54;89.47
77450;BME280;66536;53.150;18.172;2023-10-13T00:06:07;101301.31;;;5.51;89.48
77450;BME280;66536;53.150;18.172;2023-10-13T00:08:35;101301.88;;;5.48;89.52
77450;BME280;66536;53.150;18.172;2023-10-13T00:11:02;101303.45;;;5.44;89.40
77450;BME280;66536;53.150;18.172;2023-10-13T00:13:29;101298.08;;;5.40;89.41
77450;BME280;66536;53.150;18.172;2023-10-13T00:16:00;101303.20;;;5.35;89.59
77450;BME280;66536;53.150;18.172;2023-10-13T00:18:30;101303.20;;;5.32;89.51
77450;BME280;66536;53.150;18.172;2023-10-13T00:21:01;101302.26;;;5.28;89.55
77450;BME280;66536;53.150;18.172;2023-10-13T00:23:39;101301.17;;;5.23;89.52
77450;BME280;66536;53.150;18.172;2023-10-13T00:26:05;101301.55;;;5.18;89.61
77450;BME280;66536;53.150;18.172;2023-10-13T00:28:35;101306.07;;;5.14;89.69
77450;BME280;66536;53.150;18.172;2023-10-13T00:31:02;101304.80;;;5.11;89.84
77450;BME280;66536;53.150;18.172;2023-10-13T00:33:38;101305.65;;;5.07;89.91
77450;BME280;66536;53.150;18.172;2023-10-13T00:36:08;101308.85;;;5.05;89.78
77450;BME280;66536;53.150;18.172;2023-10-13T00:38:47;101315.54;;;5.01;89.74
77450;BME280;66536;53.150;18.172;2023-10-13T00:41:15;101316.80;;;4.99;89.61
77450;BME280;66536;53.150;18.172;2023-10-13T00:44:05;101313.61;;;4.95;89.64
77450;BME280;66536;53.150;18.172;2023-10-13T00:46:36;101306.52;;;4.91;89.47
77450;BME280;66536;53.150;18.172;2023-10-13T00:49:06;101304.35;;;4.87;89.47
77450;BME280;66536;53.150;18.172;2023-10-13T00:51:35;101307.90;;;4.84;89.62
77450;BME280;66536;53.150;18.172;2023-10-13T00:54:04;101303.82;;;4.80;89.69
77450;BME280;66536;53.150;18.172;2023-10-13T00:56:40;101306.59;;;4.78;89.69
77450;BME280;66536;53.150;18.172;2023-10-13T00:59:13;101308.11;;;4.77;89.78
77450;BME280;66536;53.150;18.172;2023-10-13T01:01:40;101315.67;;;4.76;89.59
77450;BME280;66536;53.150;18.172;2023-10-13T01:04:10;101311.89;;;4.76;89.80
77450;BME280;66536;53.150;18.172;2023-10-13T01:06:39;101312.89;;;4.79;90.11
77450;BME280;66536;53.150;18.172;2023-10-13T01:09:07;101313.36;;;4.80;90.16
77450;BME280;66536;53.150;18.172;2023-10-13T01:11:47;101313.28;;;4.83;90.25
77450;BME280;66536;53.150;18.172;2023-10-13T01:14:19;101312.30;;;4.84;90.36
77450;BME280;66536;53.150;18.172;2023-10-13T01:16:47;101320.44;;;4.85;90.43
77450;BME280;66536;53.150;18.172;2023-10-13T01:19:18;101319.09;;;4.86;90.60
77450;BME280;66536;53.150;18.172;2023-10-13T01:21:51;101316.77;;;4.88;90.79
77450;BME280;66536;53.150;18.172;2023-10-13T01:24:28;101313.71;;;4.89;91.07
77450;BME280;66536;53.150;18.172;2023-10-13T01:26:57;101310.46;;;4.90;91.15
77450;BME280;66536;53.150;18.172;2023-10-13T01:29:33;101311.42;;;4.93;91.31
77450;BME280;66536;53.150;18.172;2023-10-13T01:32:00;101314.03;;;4.96;91.46
77450;BME280;66536;53.150;18.172;2023-10-13T01:34:26;101313.77;;;4.98;91.60
77450;BME280;66536;53.150;18.172;2023-10-13T01:36:55;101313.20;;;5.01;91.71
77450;BME280;66536;53.150;18.172;2023-10-13T01:39:23;101311.52;;;5.02;91.74
77450;BME280;66536;53.150;18.172;2023-10-13T01:41:53;101305.98;;;5.02;91.82
77450;BME280;66536;53.150;18.172;2023-10-13T01:44:23;101306.31;;;5.03;91.77
77450;BME280;66536;53.150;18.172;2023-10-13T01:46:50;101307.59;;;5.02;91.85
77450;BME280;66536;53.150;18.172;2023-10-13T01:49:17;101312.23;;;5.02;91.90
77450;BME280;66536;53.150;18.172;2023-10-13T01:51:43;101309.70;;;5.00;91.80
77450;BME280;66536;53.150;18.172;2023-10-13T01:54:13;101311.90;;;4.98;91.78
77450;BME280;66536;53.150;18.172;2023-10-13T01:56:44;101311.20;;;4.98;91.95
77450;BME280;66536;53.150;18.172;2023-10-13T01:59:11;101309.53;;;5.00;91.93
77450;BME280;66536;53.150;18.172;2023-10-13T02:01:38;101309.04;;;5.01;92.01
77450;BME280;66536;53.150;18.172;2023-10-13T02:04:06;101305.85;;;5.02;91.95
77450;BME280;66536;53.150;18.172;2023-10-13T02:06:34;101307.55;;;5.02;91.79
77450;BME280;66536;53.150;18.172;2023-10-13T02:09:06;101308.81;;;5.02;91.80
77450;BME280;66536;53.150;18.172;2023-10-13T02:11:45;101303.40;;;4.98;91.44
77450;BME280;66536;53.150;18.172;2023-10-13T02:14:12;101300.22;;;4.94;91.26
77450;BME280;66536;53.150;18.172;2023-10-13T02:16:42;101299.20;;;4.90;91.24
77450;BME280;66536;53.150;18.172;2023-10-13T02:19:12;101291.52;;;4.87;91.25
77450;BME280;66536;53.150;18.172;2023-10-13T02:21:41;101287.83;;;4.85;91.50
77450;BME280;66536;53.150;18.172;2023-10-13T02:24:11;101289.01;;;4.83;91.64
77450;BME280;66536;53.150;18.172;2023-10-13T02:26:41;101294.92;;;4.82;91.69
77450;BME280;66536;53.150;18.172;2023-10-13T02:29:08;101299.27;;;4.83;91.61
77450;BME280;66536;53.150;18.172;2023-10-13T02:31:41;101301.70;;;4.84;91.82
77450;BME280;66536;53.150;18.172;2023-10-13T02:34:08;101303.96;;;4.86;91.71
77450;BME280;66536;53.150;18.172;2023-10-13T02:36:36;101309.27;;;4.85;91.67
77450;BME280;66536;53.150;18.172;2023-10-13T02:39:04;101307.00;;;4.84;91.43
77450;BME280;66536;53.150;18.172;2023-10-13T02:41:35;101301.29;;;4.82;91.21
77450;BME280;66536;53.150;18.172;2023-10-13T02:44:04;101299.28;;;4.79;91.18
77450;BME280;66536;53.150;18.172;2023-10-13T02:46:33;101301.66;;;4.78;91.07
77450;BME280;66536;53.150;18.172;2023-10-13T02:49:02;101302.42;;;4.77;91.36
77450;BME280;66536;53.150;18.172;2023-10-13T02:51:37;101302.74;;;4.79;91.48
77450;BME280;66536;53.150;18.172;2023-10-13T02:54:08;101305.90;;;4.82;91.68
77450;BME280;66536;53.150;18.172;2023-10-13T02:56:38;101306.73;;;4.85;91.79
77450;BME280;66536;53.150;18.172;2023-10-13T02:59:16;101304.92;;;4.88;91.96
77450;BME280;66536;53.150;18.172;2023-10-13T03:01:45;101303.73;;;4.88;91.67
77450;BME280;66536;53.150;18.172;2023-10-13T03:04:13;101304.52;;;4.87;91.84
77450;BME280;66536;53.150;18.172;2023-10-13T03:06:39;101305.85;;;4.87;91.88
77450;BME280;66536;53.150;18.172;2023-10-13T03:09:09;101306.56;;;4.87;91.99
77450;BME280;66536;53.150;18.172;2023-10-13T03:11:41;101308.59;;;4.87;92.02
77450;BME280;66536;53.150;18.172;2023-10-13T03:14:20;101307.31;;;4.88;92.02
77450;BME280;66536;53.150;18.172;2023-10-13T03:16:59;101310.15;;;4.87;91.80
77450;BME280;66536;53.150;18.172;2023-10-13T03:19:31;101316.15;;;4.87;91.95
77450;BME280;66536;53.150;18.172;2023-10-13T03:22:02;101316.02;;;4.86;91.72
77450;BME280;66536;53.150;18.172;2023-10-13T03:24:40;101313.92;;;4.87;91.65
77450;BME280;66536;53.150;18.172;2023-10-13T03:27:14;101315.29;;;4.87;91.71
77450;BME280;66536;53.150;18.172;2023-10-13T03:29:45;101316.78;;;4.86;91.61
77450;BME280;66536;53.150;18.172;2023-10-13T03:32:15;101317.80;;;4.85;91.65
77450;BME280;66536;53.150;18.172;2023-10-13T03:35:01;101317.46;;;4.87;91.74
77450;BME280;66536;53.150;18.172;2023-10-13T03:37:36;101316.10;;;4.91;91.98
77450;BME280;66536;53.150;18.172;2023-10-13T03:40:06;101317.43;;;4.96;92.13
77450;BME280;66536;53.150;18.172;2023-10-13T03:42:55;101316.09;;;5.03;92.38
77450;BME280;66536;53.150;18.172;2023-10-13T03:45:36;101311.34;;;5.09;92.22
77450;BME280;66536;53.150;18.172;2023-10-13T03:48:07;101308.05;;;5.13;92.04
77450;BME280;66536;53.150;18.172;2023-10-13T03:50:37;101304.90;;;5.17;92.06
77450;BME280;66536;53.150;18.172;2023-10-13T03:53:12;101306.56;;;5.21;91.91
77450;BME280;66536;53.150;18.172;2023-10-13T03:55:40;101308.52;;;5.22;91.87
77450;BME280;66536;53.150;18.172;2023-10-13T03:58:15;101308.89;;;5.23;91.78
77450;BME280;66536;53.150;18.172;2023-10-13T04:00:43;101305.09;;;5.23;91.68
77450;BME280;66536;53.150;18.172;2023-10-13T04:03:10;101304.01;;;5.22;91.54
77450;BME280;66536;53.150;18.172;2023-10-13T04:05:41;101307.14;;;5.20;91.53
77450;BME280;66536;53.150;18.172;2023-10-13T04:08:27;101314.98;;;5.17;91.41
77450;BME280;66536;53.150;18.172;2023-10-13T04:11:05;101317.25;;;5.15;91.44
77450;BME280;66536;53.150;18.172;2023-10-13T04:13:41;101323.23;;;5.13;91.45
77450;BME280;66536;53.150;18.172;2023-10-13T04:16:17;101322.64;;;5.12;91.43
77450;BME280;66536;53.150;18.172;2023-10-13T04:19:01;101310.80;;;5.13;91.45
77450;BME280;66536;53.150;18.172;2023-10-13T04:21:34;101308.80;;;5.14;91.46
77450;BME280;66536;53.150;18.172;2023-10-13T04:24:11;101301.26;;;5.16;91.45
77450;BME280;66536;53.150;18.172;2023-10-13T04:26:50;101288.73;;;5.18;91.42
77450;BME280;66536;53.150;18.172;2023-10-13T04:32:22;101293.38;;;5.19;91.33
77450;BME280;66536;53.150;18.172;2023-10-13T04:35:07;101290.13;;;5.18;91.47
77450;BME280;66536;53.150;18.172;2023-10-13T04:37:52;101290.61;;;5.18;91.49
77450;BME280;66536;53.150;18.172;2023-10-13T04:40:28;101282.08;;;5.19;91.71
77450;BME280;66536;53.150;18.172;2023-10-13T04:43:02;101277.14;;;5.21;91.73
77450;BME280;66536;53.150;18.172;2023-10-13T04:45:48;101288.86;;;5.22;91.74
77450;BME280;66536;53.150;18.172;2023-10-13T04:48:22;101289.77;;;5.21;91.51
77450;BME280;66536;53.150;18.172;2023-10-13T04:51:00;101293.52;;;5.21;91.52
77450;BME280;66536;53.150;18.172;2023-10-13T04:53:46;101294.08;;;5.21;91.37
77450;BME280;66536;53.150;18.172;2023-10-13T04:56:24;101292.66;;;5.21;91.35
77450;BME280;66536;53.150;18.172;2023-10-13T04:59:00;101295.59;;;5.21;91.21
77450;BME280;66536;53.150;18.172;2023-10-13T05:01:40;101296.27;;;5.21;90.96
77450;BME280;66536;53.150;18.172;2023-10-13T05:04:19;101294.69;;;5.21;90.86
77450;BME280;66536;53.150;18.172;2023-10-13T05:06:56;101290.02;;;5.22;90.83
77450;BME280;66536;53.150;18.172;2023-10-13T05:09:33;101286.07;;;5.22;90.72
77450;BME280;66536;53.150;18.172;2023-10-13T05:12:14;101288.60;;;5.22;90.46
77450;BME280;66536;53.150;18.172;2023-10-13T05:14:52;101294.26;;;5.24;90.40
77450;BME280;66536;53.150;18.172;2023-10-13T05:17:29;101290.41;;;5.25;90.61
77450;BME280;66536;53.150;18.172;2023-10-13T05:20:07;101285.36;;;5.25;90.42
77450;BME280;66536;53.150;18.172;2023-10-13T05:22:45;101287.45;;;5.25;90.41
77450;BME280;66536;53.150;18.172;2023-10-13T05:25:21;101288.48;;;5.26;90.45
77450;BME280;66536;53.150;18.172;2023-10-13T05:28:01;101290.71;;;5.28;90.30
77450;BME280;66536;53.150;18.172;2023-10-13T05:30:37;101295.81;;;5.29;90.08
77450;BME280;66536;53.150;18.172;2023-10-13T05:33:13;101290.73;;;5.28;90.15
77450;BME280;66536;53.150;18.172;2023-10-13T05:35:50;101293.66;;;5.30;90.15
77450;BME280;66536;53.150;18.172;2023-10-13T05:38:26;101290.42;;;5.33;90.13
77450;BME280;66536;53.150;18.172;2023-10-13T05:41:04;101294.31;;;5.36;90.06
77450;BME280;66536;53.150;18.172;2023-10-13T05:43:42;101296.54;;;5.38;89.78
77450;BME280;66536;53.150;18.172;2023-10-13T05:46:38;101301.00;;;5.40;89.57
77450;BME280;66536;53.150;18.172;2023-10-13T05:49:13;101303.60;;;5.39;89.32
77450;BME280;66536;53.150;18.172;2023-10-13T05:51:59;101309.46;;;5.36;88.83
77450;BME280;66536;53.150;18.172;2023-10-13T05:54:35;101309.75;;;5.34;88.68
77450;BME280;66536;53.150;18.172;2023-10-13T05:57:11;101304.36;;;5.37;88.77
77450;BME280;66536;53.150;18.172;2023-10-13T05:59:47;101301.23;;;5.45;88.62
77450;BME280;66536;53.150;18.172;2023-10-13T06:02:24;101300.06;;;5.57;88.52
77450;BME280;66536;53.150;18.172;2023-10-13T06:05:02;101299.70;;;5.67;88.39
77450;BME280;66536;53.150;18.172;2023-10-13T06:07:38;101294.15;;;5.75;88.17
77450;BME280;66536;53.150;18.172;2023-10-13T06:10:14;101292.41;;;5.84;88.02
77450;BME280;66536;53.150;18.172;2023-10-13T06:12:51;101293.54;;;5.92;87.86
77450;BME280;66536;53.150;18.172;2023-10-13T06:15:27;101292.00;;;6.04;87.46
77450;BME280;66536;53.150;18.172;2023-10-13T06:18:03;101300.72;;;6.22;87.39
77450;BME280;66536;53.150;18.172;2023-10-13T06:20:39;101304.98;;;6.44;87.10
77450;BME280;66536;53.150;18.172;2023-10-13T06:23:18;101306.43;;;6.60;87.17
77450;BME280;66536;53.150;18.172;2023-10-13T06:25:55;101309.77;;;6.75;86.92
77450;BME280;66536;53.150;18.172;2023-10-13T06:28:32;101313.39;;;6.88;86.69
77450;BME280;66536;53.150;18.172;2023-10-13T06:31:10;101311.81;;;6.96;86.43
77450;BME280;66536;53.150;18.172;2023-10-13T06:33:47;101313.81;;;7.02;86.31
77450;BME280;66536;53.150;18.172;2023-10-13T06:36:14;101313.01;;;7.09;86.03
77450;BME280;66536;53.150;18.172;2023-10-13T06:38:45;101312.42;;;7.18;85.82
77450;BME280;66536;53.150;18.172;2023-10-13T06:41:27;101314.70;;;7.29;85.52
77450;BME280;66536;53.150;18.172;2023-10-13T06:43:57;101312.85;;;7.41;85.46
77450;BME280;66536;53.150;18.172;2023-10-13T06:46:27;101313.23;;;7.52;85.21
77450;BME280;66536;53.150;18.172;2023-10-13T06:48:54;101314.41;;;7.65;84.84
77450;BME280;66536;53.150;18.172;2023-10-13T06:51:21;101309.46;;;7.72;84.87
77450;BME280;66536;53.150;18.172;2023-10-13T06:53:49;101303.07;;;7.78;84.65
77450;BME280;66536;53.150;18.172;2023-10-13T06:56:23;101303.72;;;7.86;84.61
77450;BME280;66536;53.150;18.172;2023-10-13T06:58:56;101301.23;;;7.96;84.58
77450;BME280;66536;53.150;18.172;2023-10-13T07:01:27;101298.89;;;8.05;84.27
77450;BME280;66536;53.150;18.172;2023-10-13T07:03:55;101302.57;;;8.12;84.24
77450;BME280;66536;53.150;18.172;2023-10-13T07:06:28;101300.34;;;8.20;84.45
77450;BME280;66536;53.150;18.172;2023-10-13T07:08:57;101302.67;;;8.30;84.20
77450;BME280;66536;53.150;18.172;2023-10-13T07:11:25;101296.50;;;8.40;83.95
77450;BME280;66536;53.150;18.172;2023-10-13T07:14:00;101297.21;;;8.50;83.85
77450;BME280;66536;53.150;18.172;2023-10-13T07:16:43;101296.80;;;8.60;83.87
77450;BME280;66536;53.150;18.172;2023-10-13T07:19:23;101291.57;;;8.75;83.64
77450;BME280;66536;53.150;18.172;2023-10-13T07:21:51;101286.16;;;8.94;83.52
77450;BME280;66536;53.150;18.172;2023-10-13T07:24:26;101285.46;;;9.12;83.21
77450;BME280;66536;53.150;18.172;2023-10-13T07:26:59;101281.60;;;9.30;82.84
77450;BME280;66536;53.150;18.172;2023-10-13T07:29:32;101280.66;;;9.48;82.64
77450;BME280;66536;53.150;18.172;2023-10-13T07:32:03;101283.88;;;9.60;82.48
77450;BME280;66536;53.150;18.172;2023-10-13T07:34:38;101279.05;;;9.71;82.46
77450;BME280;66536;53.150;18.172;2023-10-13T07:37:06;101267.62;;;9.82;82.45
77450;BME280;66536;53.150;18.172;2023-10-13T07:39:38;101264.45;;;9.94;82.22
77450;BME280;66536;53.150;18.172;2023-10-13T07:42:07;101265.48;;;9.98;82.11
77450;BME280;66536;53.150;18.172;2023-10-13T07:44:41;101256.27;;;10.03;82.27
77450;BME280;66536;53.150;18.172;2023-10-13T07:47:12;101256.25;;;10.13;82.23
77450;BME280;66536;53.150;18.172;2023-10-13T07:49:40;101257.55;;;10.19;81.83
77450;BME280;66536;53.150;18.172;2023-10-13T07:52:09;101262.91;;;10.25;81.80
77450;BME280;66536;53.150;18.172;2023-10-13T07:54:53;101261.12;;;10.31;81.87
77450;BME280;66536;53.150;18.172;2023-10-13T07:57:37;101251.04;;;10.43;81.99
77450;BME280;66536;53.150;18.172;2023-10-13T08:00:21;101248.91;;;10.63;81.95
77450;BME280;66536;53.150;18.172;2023-10-13T08:03:08;101239.48;;;10.81;81.71
77450;BME280;66536;53.150;18.172;2023-10-13T08:05:54;101229.73;;;10.99;81.63
77450;BME280;66536;53.150;18.172;2023-10-13T08:08:25;101227.27;;;11.16;81.67
77450;BME280;66536;53.150;18.172;2023-10-13T08:10:52;101218.50;;;11.30;81.32
77450;BME280;66536;53.150;18.172;2023-10-13T08:13:26;101214.17;;;11.41;81.30
77450;BME280;66536;53.150;18.172;2023-10-13T08:15:52;101198.35;;;11.53;81.19
77450;BME280;66536;53.150;18.172;2023-10-13T08:18:19;101198.30;;;11.67;81.12
77450;BME280;66536;53.150;18.172;2023-10-13T08:20:57;101195.71;;;11.78;81.07
77450;BME280;66536;53.150;18.172;2023-10-13T08:23:29;101194.05;;;11.87;80.96
77450;BME280;66536;53.150;18.172;2023-10-13T08:26:10;101193.84;;;11.98;80.81
77450;BME280;66536;53.150;18.172;2023-10-13T08:28:51;101193.44;;;12.02;80.77
77450;BME280;66536;53.150;18.172;2023-10-13T08:31:20;101195.90;;;12.12;80.76
77450;BME280;66536;53.150;18.172;2023-10-13T08:33:58;101194.77;;;12.27;80.60
77450;BME280;66536;53.150;18.172;2023-10-13T08:36:33;101195.64;;;12.43;80.34
77450;BME280;66536;53.150;18.172;2023-10-13T08:39:04;101198.37;;;12.51;80.05
77450;BME280;66536;53.150;18.172;2023-10-13T08:41:50;101198.10;;;12.60;80.10
77450;BME280;66536;53.150;18.172;2023-10-13T08:44:44;101198.42;;;12.66;79.81
77450;BME280;66536;53.150;18.172;2023-10-13T08:47:15;101189.52;;;12.74;79.80
77450;BME280;66536;53.150;18.172;2023-10-13T08:49:46;101185.73;;;12.86;79.61
77450;BME280;66536;53.150;18.172;2023-10-13T08:52:19;101178.91;;;12.95;79.62
77450;BME280;66536;53.150;18.172;2023-10-13T08:54:59;101181.57;;;13.05;79.46
77450;BME280;66536;53.150;18.172;2023-10-13T08:57:39;101179.55;;;13.22;79.16
77450;BME280;66536;53.150;18.172;2023-10-13T09:00:09;101174.23;;;13.37;78.87
77450;BME280;66536;53.150;18.172;2023-10-13T09:02:48;101180.45;;;13.50;78.77
77450;BME280;66536;53.150;18.172;2023-10-13T09:05:35;101179.95;;;13.52;78.66
77450;BME280;66536;53.150;18.172;2023-10-13T09:08:07;101177.95;;;13.49;78.71
77450;BME280;66536;53.150;18.172;2023-10-13T09:10:37;101182.79;;;13.48;78.81
77450;BME280;66536;53.150;18.172;2023-10-13T09:13:11;101182.77;;;13.55;78.68
77450;BME280;66536;53.150;18.172;2023-10-13T09:15:45;101176.41;;;13.63;78.57
77450;BME280;66536;53.150;18.172;2023-10-13T09:18:24;101176.49;;;13.77;78.41
77450;BME280;66536;53.150;18.172;2023-10-13T09:21:09;101172.35;;;13.91;78.14
77450;BME280;66536;53.150;18.172;2023-10-13T09:23:46;101178.18;;;13.96;78.29
77450;BME280;66536;53.150;18.172;2023-10-13T09:26:16;101173.46;;;14.02;78.19
77450;BME280;66536;53.150;18.172;2023-10-13T09:28:45;101177.15;;;14.07;78.12
77450;BME280;66536;53.150;18.172;2023-10-13T09:31:22;101169.30;;;14.09;78.33
77450;BME280;66536;53.150;18.172;2023-10-13T09:33:52;101163.20;;;14.12;78.61
77450;BME280;66536;53.150;18.172;2023-10-13T09:36:22;101165.22;;;14.16;78.80
77450;BME280;66536;53.150;18.172;2023-10-13T09:38:49;101158.42;;;14.20;78.91
77450;BME280;66536;53.150;18.172;2023-10-13T09:41:37;101148.96;;;14.31;78.85
77450;BME280;66536;53.150;18.172;2023-10-13T09:44:05;101142.22;;;14.43;78.98
77450;BME280;66536;53.150;18.172;2023-10-13T09:46:38;101140.15;;;14.61;78.79
77450;BME280;66536;53.150;18.172;2023-10-13T09:49:14;101137.21;;;14.79;78.61
77450;BME280;66536;53.150;18.172;2023-10-13T09:52:01;101131.14;;;14.98;78.31
77450;BME280;66536;53.150;18.172;2023-10-13T09:54:35;101122.96;;;15.14;78.26
77450;BME280;66536;53.150;18.172;2023-10-13T09:57:10;101113.22;;;15.26;77.89
77450;BME280;66536;53.150;18.172;2023-10-13T09:59:48;101106.75;;;15.40;77.61
77450;BME280;66536;53.150;18.172;2023-10-13T10:02:53;101098.13;;;15.51;77.50
77450;BME280;66536;53.150;18.172;2023-10-13T10:05:27;101090.70;;;15.62;77.25
77450;BME280;66536;53.150;18.172;2023-10-13T10:07:55;101090.35;;;15.70;77.09
77450;BME280;66536;53.150;18.172;2023-10-13T10:10:52;101086.41;;;15.79;76.84
77450;BME280;66536;53.150;18.172;2023-10-13T10:13:39;101085.02;;;15.85;76.56
77450;BME280;66536;53.150;18.172;2023-10-13T10:16:11;101081.16;;;15.95;76.50
77450;BME280;66536;53.150;18.172;2023-10-13T10:18:45;101077.61;;;15.95;76.32
77450;BME280;66536;53.150;18.172;2023-10-13T10:21:11;101067.40;;;16.02;76.41
77450;BME280;66536;53.150;18.172;2023-10-13T10:23:52;101070.05;;;16.12;76.31
77450;BME280;66536;53.150;18.172;2023-10-13T10:26:19;101059.77;;;16.30;75.77
77450;BME280;66536;53.150;18.172;2023-10-13T10:28:46;101054.96;;;16.49;75.25
77450;BME280;66536;53.150;18.172;2023-10-13T10:31:13;101052.45;;;16.63;75.22
77450;BME280;66536;53.150;18.172;2023-10-13T10:33:43;101042.15;;;16.76;74.86
77450;BME280;66536;53.150;18.172;2023-10-13T10:36:09;101036.03;;;16.82;74.71
77450;BME280;66536;53.150;18.172;2023-10-13T10:38:52;101030.52;;;16.89;74.78
77450;BME280;66536;53.150;18.172;2023-10-13T10:41:26;101027.53;;;16.97;74.57
77450;BME280;66536;53.150;18.172;2023-10-13T10:43:58;101025.48;;;17.15;73.83
77450;BME280;66536;53.150;18.172;2023-10-13T10:46:29;101018.42;;;17.31;73.41
77450;BME280;66536;53.150;18.172;2023-10-13T10:49:06;101018.61;;;17.53;73.52
77450;BME280;66536;53.150;18.172;2023-10-13T10:51:40;101009.47;;;17.67;72.92
77450;BME280;66536;53.150;18.172;2023-10-13T10:54:18;101004.06;;;17.78;72.67
77450;BME280;66536;53.150;18.172;2023-10-13T10:56:49;100995.08;;;17.90;72.30
77450;BME280;66536;53.150;18.172;2023-10-13T10:59:18;100991.55;;;17.99;72.44
77450;BME280;66536;53.150;18.172;2023-10-13T11:01:46;100986.98;;;18.12;72.32
77450;BME280;66536;53.150;18.172;2023-10-13T11:04:13;100987.30;;;18.22;72.01
77450;BME280;66536;53.150;18.172;2023-10-13T11:06:51;100980.30;;;18.29;71.90
77450;BME280;66536;53.150;18.172;2023-10-13T11:09:29;100965.37;;;18.46;71.16
77450;BME280;66536;53.150;18.172;2023-10-13T11:12:10;100965.36;;;18.58;70.94
77450;BME280;66536;53.150;18.172;2023-10-13T11:14:46;100963.33;;;18.83;70.63
77450;BME280;66536;53.150;18.172;2023-10-13T11:17:23;100956.41;;;19.14;70.21
77450;BME280;66536;53.150;18.172;2023-10-13T11:20:09;100950.26;;;19.41;69.66
77450;BME280;66536;53.150;18.172;2023-10-13T11:22:47;100945.29;;;19.63;69.29
77450;BME280;66536;53.150;18.172;2023-10-13T11:25:25;100941.17;;;19.85;68.93
77450;BME280;66536;53.150;18.172;2023-10-13T11:28:14;100933.00;;;20.08;68.25
77450;BME280;66536;53.150;18.172;2023-10-13T11:30:44;100933.09;;;20.18;68.36
77450;BME280;66536;53.150;18.172;2023-10-13T11:33:17;100925.20;;;20.17;67.76
77450;BME280;66536;53.150;18.172;2023-10-13T11:35:45;100922.76;;;20.07;67.46
77450;BME280;66536;53.150;18.172;2023-10-13T11:38:29;100920.44;;;19.99;67.79
77450;BME280;66536;53.150;18.172;2023-10-13T11:41:17;100923.01;;;19.97;67.55
77450;BME280;66536;53.150;18.172;2023-10-13T11:43:47;100923.90;;;19.89;67.62
77450;BME280;66536;53.150;18.172;2023-10-13T11:46:23;100924.35;;;19.74;67.69
77450;BME280;66536;53.150;18.172;2023-10-13T11:49:05;100916.60;;;19.62;67.84
77450;BME280;66536;53.150;18.172;2023-10-13T11:51:39;100922.25;;;19.48;67.96
77450;BME280;66536;53.150;18.172;2023-10-13T11:54:05;100919.77;;;19.35;67.91
77450;BME280;66536;53.150;18.172;2023-10-13T11:56:31;100915.36;;;19.25;68.16
77450;BME280;66536;53.150;18.172;2023-10-13T11:58:58;100911.45;;;19.16;68.22
77450;BME280;66536;53.150;18.172;2023-10-13T12:01:29;100909.36;;;19.08;68.38
77450;BME280;66536;53.150;18.172;2023-10-13T12:04:05;100909.31;;;19.09;68.49
77450;BME280;66536;53.150;18.172;2023-10-13T12:06:41;100901.42;;;19.17;68.49
77450;BME280;66536;53.150;18.172;2023-10-13T12:09:30;100892.69;;;19.24;68.35
77450;BME280;66536;53.150;18.172;2023-10-13T12:12:23;100892.97;;;19.28;68.19
77450;BME280;66536;53.150;18.172;2023-10-13T12:14:54;100888.39;;;19.29;68.59
77450;BME280;66536;53.150;18.172;2023-10-13T12:17:29;100881.46;;;19.29;68.87
77450;BME280;66536;53.150;18.172;2023-10-13T12:19:57;100874.20;;;19.23;68.79
77450;BME280;66536;53.150;18.172;2023-10-13T12:22:27;100869.14;;;19.14;68.84
77450;BME280;66536;53.150;18.172;2023-10-13T12:24:55;100861.38;;;19.01;69.33
77450;BME280;66536;53.150;18.172;2023-10-13T12:27:21;100864.74;;;18.90;69.63
77450;BME280;66536;53.150;18.172;2023-10-13T12:29:57;100863.08;;;18.81;70.08
77450;BME280;66536;53.150;18.172;2023-10-13T12:32:32;100862.40;;;18.74;70.19
77450;BME280;66536;53.150;18.172;2023-10-13T12:35:00;100852.67;;;18.67;70.35
77450;BME280;66536;53.150;18.172;2023-10-13T12:37:46;100845.19;;;18.60;70.76
77450;BME280;66536;53.150;18.172;2023-10-13T12:40:24;100852.88;;;18.49;70.97
77450;BME280;66536;53.150;18.172;2023-10-13T12:43:01;100850.05;;;18.37;71.71
77450;BME280;66536;53.150;18.172;2023-10-13T12:45:39;100843.12;;;18.26;72.00
77450;BME280;66536;53.150;18.172;2023-10-13T12:48:15;100838.19;;;18.17;72.17
77450;BME280;66536;53.150;18.172;2023-10-13T12:50:52;100826.35;;;18.10;72.62
77450;BME280;66536;53.150;18.172;2023-10-13T12:53:33;100825.27;;;18.06;72.88
77450;BME280;66536;53.150;18.172;2023-10-13T12:55:59;100828.66;;;18.04;73.12
77450;BME280;66536;53.150;18.172;2023-10-13T12:58:29;100823.83;;;18.02;73.42
77450;BME280;66536;53.150;18.172;2023-10-13T13:01:00;100812.50;;;18.01;73.57
77450;BME280;66536;53.150;18.172;2023-10-13T13:03:32;100803.96;;;18.00;73.88
77450;BME280;66536;53.150;18.172;2023-10-13T13:06:20;100801.14;;;18.00;74.04
77450;BME280;66536;53.150;18.172;2023-10-13T13:08:57;100793.27;;;17.99;74.53
77450;BME280;66536;53.150;18.172;2023-10-13T13:11:24;100792.17;;;17.99;74.47
77450;BME280;66536;53.150;18.172;2023-10-13T13:13:51;100787.37;;;18.00;74.76
77450;BME280;66536;53.150;18.172;2023-10-13T13:16:21;100782.28;;;18.01;74.73
77450;BME280;66536;53.150;18.172;2023-10-13T13:18:51;100769.47;;;18.04;75.00
77450;BME280;66536;53.150;18.172;2023-10-13T13:21:18;100759.23;;;18.11;75.05
77450;BME280;66536;53.150;18.172;2023-10-13T13:23:51;100748.66;;;18.21;74.94